Time;durP1;ratioP1;P1;durP2;ratioP2;P2;SDS_P1;SDS_P2;PMS_P1;PMS_P2;Temp;Humidity;BMP_temperature;BMP_pressure;BME280_temperature;BME280_humidity;BME280_pressure;Samples;Min_cycle;Max_cycle;Signal;HPM_P1;HPM_P2
2021/06/06 00:01:44;;;;;;;24.20;14.77;;;14.00;99.90;;;;;;5008888;28;20040;-64
2021/06/06 00:04:16;;;;;;;25.70;14.05;;;13.90;99.90;;;;;;5009547;28;20101;-64
2021/06/06 00:06:42;;;;;;;27.65;16.10;;;13.80;99.90;;;;;;5008554;28;20026;-63
2021/06/06 00:09:12;;;;;;;27.13;16.20;;;13.80;99.90;;;;;;5003917;28;20030;-63
2021/06/06 00:11:44;;;;;;;34.00;17.63;;;13.70;99.90;;;;;;5005442;28;20072;-64
2021/06/06 00:14:14;;;;;;;29.90;17.73;;;13.60;99.90;;;;;;5006771;28;20037;-64
2021/06/06 00:16:54;;;;;;;28.88;18.48;;;13.70;99.90;;;;;;5013847;28;20533;-65
2021/06/06 00:19:21;;;;;;;30.73;17.52;;;13.60;99.90;;;;;;5004638;28;20026;-64
2021/06/06 00:21:47;;;;;;;32.92;17.48;;;13.60;99.90;;;;;;5001735;28;20127;-62
2021/06/06 00:24:16;;;;;;;29.60;17.20;;;13.60;99.90;;;;;;5012287;28;20040;-64
2021/06/06 00:26:41;;;;;;;31.02;18.77;;;13.50;99.90;;;;;;4999520;28;20025;-64
2021/06/06 00:29:08;;;;;;;25.35;16.55;;;13.50;99.90;;;;;;5000759;28;20030;-64
2021/06/06 00:31:34;;;;;;;32.10;15.65;;;13.40;99.90;;;;;;5007674;28;20036;-63
2021/06/06 00:33:59;;;;;;;24.55;14.98;;;13.50;99.90;;;;;;5002543;28;20101;-65
2021/06/06 00:36:25;;;;;;;23.02;14.52;;;13.60;99.90;;;;;;4992997;28;20583;-65
2021/06/06 00:38:51;;;;;;;17.30;12.45;;;13.70;99.90;;;;;;5004150;28;20037;-63
2021/06/06 00:41:19;;;;;;;23.08;13.07;;;13.70;99.90;;;;;;5014458;28;20033;-64
2021/06/06 00:43:46;;;;;;;24.00;12.50;;;13.70;99.90;;;;;;5007706;28;20085;-63
2021/06/06 00:46:13;;;;;;;21.35;11.45;;;13.60;99.90;;;;;;5014359;28;20083;-63
2021/06/06 00:48:39;;;;;;;19.20;11.43;;;13.60;99.90;;;;;;5002502;28;20033;-64
2021/06/06 00:51:51;;;;;;;17.55;11.43;;;13.60;99.90;;;;;;5004213;28;20592;-65
2021/06/06 00:54:21;;;;;;;26.38;14.10;;;13.60;99.90;;;;;;4999454;28;20041;-64
2021/06/06 00:56:51;;;;;;;25.60;13.13;;;13.60;99.90;;;;;;4999438;28;20038;-63
2021/06/06 00:59:22;;;;;;;19.40;12.10;;;13.50;99.90;;;;;;5015480;28;20071;-65
2021/06/06 01:01:48;;;;;;;22.75;12.80;;;13.60;99.90;;;;;;5007259;28;20088;-64
2021/06/06 01:04:14;;;;;;;22.27;13.15;;;13.50;99.90;;;;;;5000423;28;20026;-63
2021/06/06 01:06:44;;;;;;;20.15;11.98;;;13.50;99.90;;;;;;5001289;28;20040;-65
2021/06/06 01:09:12;;;;;;;23.42;13.70;;;13.50;99.90;;;;;;5013773;28;20022;-65
2021/06/06 01:11:52;;;;;;;22.73;14.77;;;13.50;99.90;;;;;;5004427;28;20092;-63
2021/06/06 01:14:29;;;;;;;33.38;17.75;;;13.60;99.90;;;;;;4999652;28;20022;-64
2021/06/06 01:17:01;;;;;;;31.08;17.98;;;13.70;99.90;;;;;;5005465;28;20099;-63
2021/06/06 01:19:33;;;;;;;30.30;18.77;;;13.70;99.90;;;;;;5006472;28;20034;-63
2021/06/06 01:22:05;;;;;;;32.47;19.08;;;13.70;99.90;;;;;;4999356;28;20025;-64
2021/06/06 01:24:45;;;;;;;38.90;22.35;;;13.50;99.90;;;;;;5000278;28;20033;-63
2021/06/06 01:27:14;;;;;;;37.03;21.80;;;13.50;99.90;;;;;;4990840;28;20390;-64
2021/06/06 01:30:12;;;;;;;48.22;25.00;;;13.60;99.90;;;;;;5008234;28;20109;-66
2021/06/06 01:32:45;;;;;;;40.97;24.25;;;13.50;99.90;;;;;;5005598;28;20110;-65
2021/06/06 01:35:17;;;;;;;46.90;25.48;;;13.40;99.90;;;;;;5006025;28;20037;-64
2021/06/06 01:37:47;;;;;;;48.87;26.07;;;13.20;99.90;;;;;;5002654;28;20071;-64
2021/06/06 01:40:19;;;;;;;45.80;25.05;;;13.20;99.90;;;;;;5011286;28;20083;-65
2021/06/06 01:42:52;;;;;;;46.15;24.95;;;13.20;99.90;;;;;;5010617;28;20014;-64
2021/06/06 01:45:24;;;;;;;42.03;24.70;;;13.30;99.90;;;;;;5017065;28;20478;-65
2021/06/06 01:47:50;;;;;;;42.40;24.30;;;13.30;99.90;;;;;;5008712;28;20029;-64
2021/06/06 01:50:23;;;;;;;41.75;24.17;;;13.20;99.90;;;;;;5005327;28;20026;-63
2021/06/06 01:52:51;;;;;;;46.55;23.33;;;13.30;99.90;;;;;;5013392;28;20010;-64
2021/06/06 01:55:20;;;;;;;47.65;24.67;;;13.30;99.90;;;;;;5012977;28;20452;-64
2021/06/06 01:57:48;;;;;;;37.88;23.98;;;13.40;99.90;;;;;;5012029;28;20105;-65
2021/06/06 02:00:24;;;;;;;46.50;24.55;;;13.30;99.90;;;;;;5013295;28;20018;-64
2021/06/06 02:02:50;;;;;;;42.83;25.25;;;13.20;99.90;;;;;;5012277;28;20064;-65
2021/06/06 02:05:18;;;;;;;44.38;23.48;;;13.10;99.90;;;;;;5011173;28;20049;-64
2021/06/06 02:07:48;;;;;;;47.42;25.05;;;13.00;99.90;;;;;;5004203;28;20026;-63
2021/06/06 02:10:28;;;;;;;40.92;22.50;;;12.90;99.90;;;;;;5013214;28;20087;-64
2021/06/06 02:13:02;;;;;;;42.30;23.17;;;13.00;99.90;;;;;;5010533;28;20052;-64
2021/06/06 02:15:31;;;;;;;41.75;23.33;;;13.00;99.90;;;;;;5009919;28;20018;-64
2021/06/06 02:17:59;;;;;;;41.63;24.58;;;13.00;99.90;;;;;;5006275;28;20030;-64
2021/06/06 02:20:28;;;;;;;43.53;22.92;;;13.00;99.90;;;;;;5001234;28;20106;-64
2021/06/06 02:22:56;;;;;;;38.10;21.63;;;12.90;99.90;;;;;;5004055;28;20030;-64
2021/06/06 02:25:22;;;;;;;38.55;23.80;;;12.90;99.90;;;;;;5006737;28;20022;-64
2021/06/06 02:27:58;;;;;;;44.10;23.02;;;13.00;99.90;;;;;;5011057;28;20013;-64
2021/06/06 02:30:35;;;;;;;36.25;23.17;;;13.00;99.90;;;;;;5015617;28;20030;-64
2021/06/06 02:33:46;;;;;;;44.47;22.85;;;12.90;99.90;;;;;;5012714;28;20109;-65
2021/06/06 02:36:16;;;;;;;36.53;22.20;;;13.00;99.90;;;;;;4987063;28;20046;-64
2021/06/06 02:38:51;;;;;;;35.28;21.33;;;13.00;99.90;;;;;;4996373;28;20022;-64
2021/06/06 02:41:33;;;;;;;33.58;22.23;;;13.10;99.90;;;;;;5008233;28;20470;-64
2021/06/06 02:44:13;;;;;;;36.83;20.30;;;13.00;99.90;;;;;;5012627;28;20101;-64
2021/06/06 02:46:41;;;;;;;36.55;20.83;;;13.00;99.90;;;;;;5014140;28;20267;-64
2021/06/06 02:49:14;;;;;;;34.40;19.88;;;12.90;99.90;;;;;;5012515;28;20022;-63
2021/06/06 02:51:56;;;;;;;31.50;18.25;;;13.00;99.90;;;;;;5008896;28;20109;-64
2021/06/06 02:54:29;;;;;;;33.28;17.40;;;12.90;99.90;;;;;;5009172;28;20030;-64
2021/06/06 02:56:59;;;;;;;33.40;18.85;;;12.80;99.90;;;;;;5010474;28;20026;-65
2021/06/06 02:59:30;;;;;;;29.88;17.80;;;12.80;99.90;;;;;;5002376;28;20026;-64
2021/06/06 03:02:00;;;;;;;30.13;17.17;;;12.80;99.90;;;;;;5016049;28;20025;-63
2021/06/06 03:04:30;;;;;;;30.30;18.90;;;12.80;99.90;;;;;;5001592;28;20100;-64
2021/06/06 03:07:06;;;;;;;30.27;18.50;;;12.80;99.90;;;;;;5002433;28;20022;-63
2021/06/06 03:09:32;;;;;;;29.40;18.92;;;12.80;99.90;;;;;;4999920;28;20153;-65
2021/06/06 03:12:03;;;;;;;32.97;18.50;;;12.80;99.90;;;;;;5005745;28;20540;-65
2021/06/06 03:14:30;;;;;;;28.95;17.50;;;12.80;99.90;;;;;;5000211;28;20430;-64
2021/06/06 03:17:16;;;;;;;30.83;18.08;;;12.70;99.90;;;;;;5007562;28;20041;-62
2021/06/06 03:19:48;;;;;;;27.35;18.00;;;12.70;99.90;;;;;;5008308;28;20415;-64
2021/06/06 03:22:27;;;;;;;26.95;16.98;;;12.80;99.90;;;;;;5003084;28;20485;-64
2021/06/06 03:24:56;;;;;;;31.13;16.63;;;12.80;99.90;;;;;;5002857;28;20670;-65
2021/06/06 03:27:25;;;;;;;30.77;17.00;;;12.70;99.90;;;;;;5022878;28;20022;-65
2021/06/06 03:30:03;;;;;;;29.80;16.48;;;12.70;99.90;;;;;;5000082;28;20026;-64
2021/06/06 03:32:34;;;;;;;29.42;17.25;;;12.70;99.90;;;;;;5006911;28;20030;-64
2021/06/06 03:35:00;;;;;;;23.15;15.93;;;12.70;99.90;;;;;;5013693;28;20616;-63
2021/06/06 03:37:26;;;;;;;23.88;15.55;;;12.60;99.90;;;;;;5009397;28;20552;-63
2021/06/06 03:39:53;;;;;;;28.17;16.33;;;12.60;99.90;;;;;;5002691;28;20026;-64
2021/06/06 03:42:19;;;;;;;27.00;15.38;;;12.70;99.90;;;;;;5012510;28;20048;-64
2021/06/06 03:44:45;;;;;;;21.15;14.18;;;12.70;99.90;;;;;;5009930;28;20570;-64
2021/06/06 03:47:11;;;;;;;31.55;14.15;;;12.70;99.90;;;;;;4997510;28;20064;-64
2021/06/06 03:49:37;;;;;;;19.90;13.85;;;12.60;99.90;;;;;;5013123;28;20136;-64
2021/06/06 03:52:04;;;;;;;20.15;13.60;;;12.60;99.90;;;;;;5009125;28;20044;-63
2021/06/06 03:54:30;;;;;;;18.63;12.40;;;12.60;99.90;;;;;;5013792;28;20041;-64
2021/06/06 03:56:56;;;;;;;23.05;12.02;;;12.60;99.90;;;;;;5007928;28;20030;-65
2021/06/06 03:59:22;;;;;;;18.98;11.48;;;12.60;99.90;;;;;;5007027;28;20034;-64
2021/06/06 04:01:49;;;;;;;21.45;12.65;;;12.60;99.90;;;;;;5007961;28;20026;-64
2021/06/06 04:04:15;;;;;;;21.88;12.82;;;12.60;99.90;;;;;;5012504;28;20029;-62
2021/06/06 04:06:41;;;;;;;25.33;12.60;;;12.70;99.90;;;;;;5013423;28;20022;-64
2021/06/06 04:09:08;;;;;;;18.95;13.43;;;12.70;99.90;;;;;;5009630;28;20026;-63
2021/06/06 04:11:35;;;;;;;26.10;13.30;;;12.70;99.90;;;;;;5008903;28;20021;-63
2021/06/06 04:14:01;;;;;;;18.13;12.00;;;12.80;99.90;;;;;;5011302;28;20030;-63
2021/06/06 04:16:26;;;;;;;18.88;11.82;;;12.80;99.90;;;;;;5011072;28;20072;-64
2021/06/06 04:18:52;;;;;;;18.95;11.45;;;12.80;99.90;;;;;;5005618;28;20045;-63
2021/06/06 04:21:21;;;;;;;20.80;12.30;;;12.90;99.90;;;;;;5002181;28;20818;-68
2021/06/06 04:23:47;;;;;;;16.02;10.88;;;12.90;99.90;;;;;;5007336;28;20021;-64
2021/06/06 04:26:13;;;;;;;16.10;10.18;;;12.90;99.90;;;;;;4990399;28;20442;-64
2021/06/06 04:28:40;;;;;;;14.70;10.38;;;12.90;99.90;;;;;;4996526;28;20023;-64
2021/06/06 04:31:06;;;;;;;15.55;10.90;;;12.90;99.90;;;;;;4997192;28;20050;-64
2021/06/06 04:33:32;;;;;;;14.60;9.75;;;12.90;99.90;;;;;;4995029;28;20473;-64
2021/06/06 04:35:58;;;;;;;18.35;9.93;;;12.90;99.90;;;;;;4997829;28;20088;-63
2021/06/06 04:38:27;;;;;;;20.10;11.30;;;12.90;99.90;;;;;;4997229;28;20034;-64
2021/06/06 04:40:55;;;;;;;16.55;10.13;;;13.00;99.90;;;;;;4990307;28;20109;-63
2021/06/06 04:43:21;;;;;;;17.38;9.77;;;13.10;99.90;;;;;;4996924;28;20026;-63
2021/06/06 04:45:47;;;;;;;17.35;9.90;;;13.10;99.90;;;;;;4992973;28;20449;-64
2021/06/06 04:48:17;;;;;;;13.13;8.98;;;13.10;99.90;;;;;;4996990;28;20019;-65
2021/06/06 04:50:44;;;;;;;17.33;8.52;;;13.10;99.90;;;;;;5000526;28;20482;-64
2021/06/06 04:53:10;;;;;;;18.20;9.27;;;13.20;99.90;;;;;;5000187;28;20707;-64
2021/06/06 04:55:36;;;;;;;13.98;8.68;;;13.20;99.90;;;;;;4992157;28;20153;-63
2021/06/06 04:58:03;;;;;;;16.30;8.77;;;13.30;99.90;;;;;;5032382;23;20215;-65
2021/06/06 05:00:31;;;;;;;12.55;8.10;;;13.30;99.90;;;;;;5034366;28;20495;-66
2021/06/06 05:02:56;;;;;;;13.75;7.70;;;13.40;99.90;;;;;;5031748;28;20022;-65
2021/06/06 05:05:22;;;;;;;13.95;7.85;;;13.40;99.90;;;;;;5031847;28;20084;-64
2021/06/06 05:07:58;;;;;;;15.88;7.38;;;13.50;99.90;;;;;;5039502;28;20489;-66
2021/06/06 05:10:26;;;;;;;13.10;8.00;;;13.50;99.90;;;;;;5017825;28;20042;-65
2021/06/06 05:12:52;;;;;;;11.45;7.22;;;13.50;99.90;;;;;;5038561;28;20020;-66
2021/06/06 05:15:19;;;;;;;13.18;7.70;;;13.50;99.90;;;;;;5017113;28;20082;-66
2021/06/06 05:17:45;;;;;;;9.95;6.63;;;13.60;99.90;;;;;;5020704;28;20032;-65
2021/06/06 05:20:12;;;;;;;12.43;6.60;;;13.70;99.90;;;;;;5026628;28;20025;-65
2021/06/06 05:22:38;;;;;;;9.57;6.25;;;13.80;99.90;;;;;;5021339;28;20030;-66
2021/06/06 05:25:06;;;;;;;7.90;5.93;;;13.90;99.90;;;;;;5015994;28;20046;-65
2021/06/06 05:27:31;;;;;;;12.50;6.55;;;13.90;99.90;;;;;;5016398;28;20026;-67
2021/06/06 05:29:57;;;;;;;12.50;6.40;;;14.00;99.90;;;;;;5007854;28;20326;-66
2021/06/06 05:32:23;;;;;;;12.02;6.68;;;14.10;99.90;;;;;;5002247;28;20276;-66
2021/06/06 05:34:48;;;;;;;8.68;5.28;;;13.90;99.90;;;;;;5004161;28;20025;-66
2021/06/06 05:37:14;;;;;;;7.45;5.63;;;14.00;99.90;;;;;;5019847;28;20027;-66
2021/06/06 05:39:41;;;;;;;10.52;5.28;;;14.10;99.90;;;;;;5002411;28;20407;-66
2021/06/06 05:42:07;;;;;;;8.45;3.95;;;14.00;99.90;;;;;;5002992;28;20474;-65
2021/06/06 05:44:34;;;;;;;9.48;5.22;;;14.00;99.90;;;;;;4995743;28;20114;-67
2021/06/06 05:46:59;;;;;;;13.93;3.85;;;14.10;99.90;;;;;;5000961;28;20018;-66
2021/06/06 05:49:25;;;;;;;7.38;3.90;;;14.20;99.90;;;;;;4997698;28;20042;-66
2021/06/06 05:51:51;;;;;;;8.98;3.63;;;14.30;99.90;;;;;;4996281;28;20026;-66
2021/06/06 05:54:17;;;;;;;6.28;3.67;;;14.30;99.90;;;;;;5003035;28;20275;-68
2021/06/06 05:56:46;;;;;;;7.35;3.22;;;14.40;99.90;;;;;;5002715;28;20026;-67
2021/06/06 05:59:11;;;;;;;7.00;3.28;;;14.50;99.90;;;;;;5003370;28;20125;-67
2021/06/06 06:01:37;;;;;;;5.35;3.00;;;14.50;99.90;;;;;;5006782;28;20566;-64
2021/06/06 06:04:04;;;;;;;3.53;2.65;;;14.60;99.90;;;;;;5004263;28;20577;-68
2021/06/06 06:06:29;;;;;;;4.30;2.72;;;14.50;99.90;;;;;;5005925;28;20026;-64
2021/06/06 06:08:56;;;;;;;6.18;2.78;;;14.60;99.90;;;;;;5001502;28;20034;-66
2021/06/06 06:11:22;;;;;;;4.53;2.72;;;14.70;99.90;;;;;;4996179;28;20416;-65
2021/06/06 06:13:49;;;;;;;4.55;2.88;;;14.80;99.90;;;;;;5013013;28;20036;-65
2021/06/06 06:16:20;;;;;;;4.15;2.58;;;14.70;99.90;;;;;;5001635;28;20041;-67
2021/06/06 06:18:47;;;;;;;9.57;3.25;;;14.80;99.90;;;;;;4999183;28;20029;-66
2021/06/06 06:21:14;;;;;;;7.20;3.05;;;14.80;99.90;;;;;;5001679;28;20025;-65
2021/06/06 06:23:40;;;;;;;3.38;2.35;;;14.80;99.90;;;;;;4996139;28;20034;-64
2021/06/06 06:26:06;;;;;;;3.08;2.28;;;14.90;99.90;;;;;;5000841;28;20018;-65
2021/06/06 06:28:32;;;;;;;2.60;2.40;;;15.20;99.90;;;;;;5002712;28;20021;-67
2021/06/06 06:30:58;;;;;;;4.75;2.50;;;15.20;99.90;;;;;;5009962;28;20029;-64
2021/06/06 06:33:24;;;;;;;5.03;2.53;;;15.30;99.90;;;;;;5003137;28;20080;-65
2021/06/06 06:35:49;;;;;;;4.78;2.60;;;15.60;99.90;;;;;;5001866;28;20517;-66
2021/06/06 06:38:15;;;;;;;2.95;2.17;;;15.60;99.90;;;;;;5003477;28;20333;-65
2021/06/06 06:40:41;;;;;;;3.58;2.25;;;15.60;99.90;;;;;;5003565;28;20026;-68
2021/06/06 06:43:07;;;;;;;6.63;2.50;;;15.70;99.90;;;;;;5007485;28;20022;-66
2021/06/06 06:45:36;;;;;;;3.38;2.25;;;16.20;99.90;;;;;;5010138;28;20087;-68
2021/06/06 06:48:09;;;;;;;2.00;1.85;;;15.60;99.90;;;;;;5009938;28;20234;-66
2021/06/06 06:50:36;;;;;;;2.50;2.30;;;15.70;99.90;;;;;;4996916;28;20053;-68
2021/06/06 06:53:02;;;;;;;4.70;2.45;;;15.70;99.90;;;;;;5012970;28;20326;-66
2021/06/06 06:55:28;;;;;;;3.33;2.15;;;15.80;99.90;;;;;;5013601;28;20025;-66
2021/06/06 06:57:56;;;;;;;2.83;2.10;;;15.80;99.90;;;;;;5008901;28;21492;-67
2021/06/06 07:00:26;;;;;;;3.20;2.20;;;15.80;99.90;;;;;;5006447;28;20071;-66
2021/06/06 07:02:52;;;;;;;5.97;2.40;;;16.20;99.90;;;;;;5009885;28;20100;-65
2021/06/06 07:05:18;;;;;;;2.75;2.28;;;16.20;99.90;;;;;;5022152;28;20191;-66
2021/06/06 07:07:43;;;;;;;5.07;3.03;;;16.40;99.90;;;;;;5017446;28;20030;-66
2021/06/06 07:10:13;;;;;;;4.07;3.08;;;16.40;99.90;;;;;;5008861;28;20414;-66
2021/06/06 07:12:39;;;;;;;4.38;3.20;;;16.40;99.90;;;;;;5012110;28;20025;-66
2021/06/06 07:15:10;;;;;;;3.97;3.00;;;16.20;99.90;;;;;;5012466;28;20025;-63
2021/06/06 07:17:35;;;;;;;5.70;3.13;;;16.20;99.90;;;;;;5008909;28;20026;-66
2021/06/06 07:20:02;;;;;;;4.25;3.30;;;16.20;99.90;;;;;;4998570;28;20168;-66
2021/06/06 07:22:28;;;;;;;3.88;3.35;;;16.20;99.90;;;;;;5000748;28;20030;-66
2021/06/06 07:24:53;;;;;;;4.93;3.33;;;16.40;99.90;;;;;;5005706;28;20477;-65
2021/06/06 07:27:19;;;;;;;8.32;3.28;;;16.50;99.90;;;;;;5001229;28;20036;-66
2021/06/06 07:29:45;;;;;;;5.32;3.35;;;16.40;99.90;;;;;;5003476;28;20525;-68
2021/06/06 07:32:12;;;;;;;4.78;2.95;;;16.30;99.90;;;;;;5006982;28;20044;-66
2021/06/06 07:34:37;;;;;;;5.00;3.72;;;16.30;99.90;;;;;;5010185;28;20033;-66
2021/06/06 07:37:06;;;;;;;6.28;3.90;;;16.30;99.90;;;;;;5006645;28;20088;-67
2021/06/06 07:39:32;;;;;;;5.13;3.75;;;16.30;99.90;;;;;;5005721;28;20022;-66
2021/06/06 07:41:59;;;;;;;9.48;3.70;;;16.00;99.90;;;;;;5009203;28;20103;-65
2021/06/06 07:44:25;;;;;;;4.75;3.83;;;16.30;99.90;;;;;;5009460;28;20490;-66
2021/06/06 07:46:51;;;;;;;8.45;4.82;;;16.30;99.90;;;;;;5009061;28;20032;-67
2021/06/06 07:49:17;;;;;;;5.65;3.90;;;16.40;99.90;;;;;;5007831;28;20398;-67
2021/06/06 07:51:43;;;;;;;5.07;3.45;;;16.20;99.90;;;;;;5004489;28;20034;-67
2021/06/06 07:54:09;;;;;;;4.20;3.80;;;16.50;99.90;;;;;;5007922;28;20030;-66
2021/06/06 07:56:35;;;;;;;4.97;3.72;;;16.70;99.90;;;;;;5017220;28;20104;-65
2021/06/06 07:59:01;;;;;;;5.30;3.50;;;16.80;99.90;;;;;;5006233;28;20026;-65
2021/06/06 08:01:26;;;;;;;6.60;3.38;;;16.80;99.90;;;;;;5004025;28;20045;-65
2021/06/06 08:03:52;;;;;;;3.80;2.83;;;16.80;99.90;;;;;;5003278;28;20019;-66
2021/06/06 08:06:20;;;;;;;6.72;3.65;;;16.80;99.90;;;;;;5003941;28;20627;-65
2021/06/06 08:08:46;;;;;;;8.13;4.15;;;16.80;99.90;;;;;;5009427;28;20485;-65
2021/06/06 08:11:12;;;;;;;5.38;3.47;;;16.80;99.90;;;;;;5008676;28;20055;-65
2021/06/06 08:13:40;;;;;;;4.13;3.65;;;16.80;99.90;;;;;;5007683;28;20041;-66
2021/06/06 08:16:07;;;;;;;9.35;4.45;;;16.90;99.90;;;;;;4994314;28;20045;-68
2021/06/06 08:18:38;;;;;;;4.70;3.35;;;17.10;99.90;;;;;;5005245;28;20477;-66
2021/06/06 08:21:22;;;;;;;5.32;3.33;;;17.10;99.90;;;;;;5003717;28;20444;-66
2021/06/06 08:23:49;;;;;;;6.05;3.40;;;17.20;99.90;;;;;;5008618;28;20373;-67
2021/06/06 08:26:17;;;;;;;5.80;3.83;;;17.10;99.90;;;;;;5009359;28;20021;-66
2021/06/06 08:28:45;;;;;;;5.22;3.03;;;17.10;99.90;;;;;;5006484;28;20041;-65
2021/06/06 08:31:15;;;;;;;3.92;3.25;;;17.00;99.90;;;;;;5001562;28;20086;-67
2021/06/06 08:33:42;;;;;;;9.05;2.92;;;17.20;99.90;;;;;;5001461;28;20071;-67
2021/06/06 08:36:21;;;;;;;5.20;3.15;;;17.60;99.90;;;;;;4997248;28;20513;-66
2021/06/06 08:38:47;;;;;;;3.55;2.83;;;17.20;99.90;;;;;;4999479;28;20486;-65
2021/06/06 08:41:24;;;;;;;4.97;2.83;;;17.10;99.90;;;;;;5006600;28;20025;-67
2021/06/06 08:44:04;;;;;;;4.15;2.70;;;17.00;99.90;;;;;;5009056;28;20458;-68
2021/06/06 08:46:34;;;;;;;5.05;3.00;;;17.20;99.90;;;;;;5010507;28;20060;-65
2021/06/06 08:49:00;;;;;;;4.93;2.65;;;17.50;99.90;;;;;;5011845;28;20133;-67
2021/06/06 08:51:45;;;;;;;3.45;3.00;;;17.40;99.90;;;;;;5008597;28;20541;-65
2021/06/06 08:54:49;;;;;;;4.05;3.00;;;17.50;99.90;;;;;;5009751;28;20057;-66
2021/06/06 08:57:22;;;;;;;7.72;4.60;;;17.80;99.90;;;;;;5004385;28;20395;-65
2021/06/06 08:59:56;;;;;;;5.32;2.72;;;17.90;99.90;;;;;;5000129;28;20026;-66
2021/06/06 09:02:33;;;;;;;2.78;2.17;;;17.80;99.90;;;;;;5014365;28;20022;-66
2021/06/06 09:05:01;;;;;;;4.40;2.50;;;17.90;99.90;;;;;;5017692;28;20044;-67
2021/06/06 09:07:39;;;;;;;2.85;2.10;;;17.90;99.90;;;;;;5016809;28;20029;-66
2021/06/06 09:10:22;;;;;;;4.07;2.95;;;17.80;99.90;;;;;;5009800;28;20337;-65
2021/06/06 09:12:48;;;;;;;3.22;2.25;;;17.80;99.90;;;;;;5024474;28;20531;-67
2021/06/06 09:15:16;;;;;;;4.32;2.45;;;17.80;99.90;;;;;;5017787;28;20033;-67
2021/06/06 09:17:45;;;;;;;7.95;3.13;;;17.90;99.90;;;;;;5010154;28;20036;-66
2021/06/06 09:20:37;;;;;;;6.50;2.85;;;18.00;99.90;;;;;;5009828;28;20462;-66
2021/06/06 09:23:25;;;;;;;6.32;2.90;;;18.10;99.90;;;;;;5013043;28;20044;-66
2021/06/06 09:26:03;;;;;;;9.00;4.90;;;18.30;99.90;;;;;;5017230;28;20485;-68
2021/06/06 09:28:29;;;;;;;2.72;2.30;;;18.30;99.90;;;;;;5005404;28;20369;-67
2021/06/06 09:31:16;;;;;;;3.90;2.50;;;18.10;99.90;;;;;;5001459;28;20030;-67
2021/06/06 09:33:47;;;;;;;3.42;2.78;;;18.40;99.90;;;;;;4998202;28;20027;-65
2021/06/06 09:36:24;;;;;;;4.78;2.13;;;18.30;99.90;;;;;;5006838;28;20049;-67
2021/06/06 09:39:04;;;;;;;4.25;2.53;;;18.20;99.90;;;;;;4998018;28;20323;-67
2021/06/06 09:41:38;;;;;;;4.45;2.83;;;18.20;99.90;;;;;;4999523;28;20083;-68
2021/06/06 09:44:17;;;;;;;3.40;2.28;;;18.50;99.90;;;;;;5002262;28;20022;-67
2021/06/06 09:46:47;;;;;;;8.88;2.97;;;18.30;99.90;;;;;;5000019;28;20034;-67
2021/06/06 09:49:24;;;;;;;4.32;2.10;;;18.40;99.90;;;;;;5000958;28;20116;-66
2021/06/06 09:51:51;;;;;;;3.10;2.42;;;18.80;99.90;;;;;;5002667;28;20026;-67
2021/06/06 09:54:29;;;;;;;3.90;2.00;;;18.70;99.90;;;;;;5006153;28;20049;-67
2021/06/06 09:57:06;;;;;;;4.75;1.98;;;18.60;99.90;;;;;;5005563;28;20124;-68
2021/06/06 09:59:34;;;;;;;5.13;1.67;;;19.00;99.90;;;;;;5005192;28;20041;-68
2021/06/06 10:02:12;;;;;;;6.65;2.42;;;18.90;99.90;;;;;;5012432;28;20022;-67
2021/06/06 10:04:41;;;;;;;5.13;2.80;;;18.80;99.90;;;;;;5013270;28;20022;-66
2021/06/06 10:07:15;;;;;;;3.95;1.92;;;18.80;99.90;;;;;;5012976;28;20022;-65
2021/06/06 10:09:48;;;;;;;4.28;2.58;;;18.70;99.90;;;;;;5008116;28;20455;-67
2021/06/06 10:12:40;;;;;;;7.25;1.85;;;18.70;99.90;;;;;;5002560;28;20018;-66
2021/06/06 10:15:14;;;;;;;6.20;2.17;;;18.70;99.90;;;;;;5006818;28;20030;-66
2021/06/06 10:17:44;;;;;;;4.95;2.38;;;19.00;99.90;;;;;;5001580;28;20502;-67
2021/06/06 10:20:22;;;;;;;3.38;2.05;;;19.00;99.90;;;;;;5012429;28;20025;-67
2021/06/06 10:22:57;;;;;;;4.07;2.40;;;18.80;99.90;;;;;;5024110;28;20114;-66
2021/06/06 10:25:31;;;;;;;5.57;2.10;;;18.80;99.90;;;;;;5021136;28;20057;-64
2021/06/06 10:28:04;;;;;;;4.30;2.33;;;18.80;99.90;;;;;;5020151;28;20022;-65
2021/06/06 10:30:40;;;;;;;3.15;1.58;;;19.10;99.90;;;;;;5011570;28;20439;-67
2021/06/06 10:33:26;;;;;;;3.50;2.30;;;19.10;99.90;;;;;;5014806;28;20595;-69
2021/06/06 10:35:52;;;;;;;4.57;2.40;;;19.00;99.90;;;;;;5013712;28;20032;-66
2021/06/06 10:38:19;;;;;;;4.50;2.25;;;19.10;99.90;;;;;;5011111;28;20097;-68
2021/06/06 10:40:46;;;;;;;3.88;1.85;;;19.20;99.30;;;;;;5010750;28;20026;-67
2021/06/06 10:43:17;;;;;;;4.68;2.00;;;19.20;99.90;;;;;;5010993;28;20080;-66
2021/06/06 10:45:48;;;;;;;3.97;2.00;;;19.30;99.20;;;;;;5023218;28;20477;-67
2021/06/06 10:48:23;;;;;;;3.60;2.15;;;19.10;99.30;;;;;;5018202;28;20481;-67
2021/06/06 10:50:52;;;;;;;3.72;1.92;;;18.90;99.10;;;;;;5023359;28;20029;-68
2021/06/06 10:53:25;;;;;;;4.10;2.20;;;19.00;99.90;;;;;;5016692;28;20077;-65
2021/06/06 10:56:12;;;;;;;7.30;2.28;;;19.00;99.20;;;;;;5010435;28;20025;-66
2021/06/06 10:58:54;;;;;;;3.83;2.03;;;19.20;99.90;;;;;;5040241;22;20050;-66
2021/06/06 11:01:19;;;;;;;2.38;2.17;;;19.70;99.90;;;;;;4998885;28;20034;-65
2021/06/06 11:03:48;;;;;;;7.13;3.33;;;19.40;99.90;;;;;;5007352;28;20025;-64
2021/06/06 11:06:26;;;;;;;7.22;3.00;;;19.60;99.40;;;;;;5004317;28;20035;-64
2021/06/06 11:08:53;;;;;;;3.42;2.40;;;19.50;99.90;;;;;;5005196;28;20021;-67
2021/06/06 11:11:20;;;;;;;6.47;2.95;;;19.50;99.80;;;;;;4991522;28;20037;-64
2021/06/06 11:13:55;;;;;;;8.95;2.83;;;19.20;99.90;;;;;;4999388;28;20114;-65
2021/06/06 11:16:22;;;;;;;6.90;2.83;;;19.50;99.90;;;;;;5003661;28;20022;-66
2021/06/06 11:19:01;;;;;;;3.90;2.33;;;19.70;99.90;;;;;;5012140;28;20030;-65
2021/06/06 11:21:45;;;;;;;4.93;3.20;;;19.90;99.90;;;;;;4991211;28;20362;-65
2021/06/06 11:24:26;;;;;;;3.83;2.38;;;20.00;99.60;;;;;;5013187;28;20112;-64
2021/06/06 11:27:11;;;;;;;6.90;3.05;;;20.10;98.40;;;;;;5012868;28;20022;-64
2021/06/06 11:29:59;;;;;;;4.68;2.88;;;20.10;97.80;;;;;;5017990;28;20109;-63
2021/06/06 11:32:45;;;;;;;4.80;3.28;;;19.90;98.80;;;;;;5010972;28;20112;-65
2021/06/06 11:35:41;;;;;;;6.57;4.30;;;20.10;99.40;;;;;;5004625;28;20361;-65
2021/06/06 11:38:18;;;;;;;5.40;3.33;;;20.10;99.00;;;;;;5013228;28;20037;-64
2021/06/06 11:40:46;;;;;;;4.90;2.60;;;20.10;99.90;;;;;;5009233;28;20026;-66
2021/06/06 11:43:31;;;;;;;7.28;2.80;;;20.40;99.90;;;;;;5008972;28;20053;-64
2021/06/06 11:46:14;;;;;;;11.00;3.60;;;20.70;98.30;;;;;;5005984;28;20112;-65
2021/06/06 11:48:52;;;;;;;4.97;3.00;;;20.60;99.60;;;;;;4989541;28;20033;-66
2021/06/06 11:51:39;;;;;;;10.63;3.03;;;20.80;99.80;;;;;;5002395;28;20042;-64
2021/06/06 11:54:22;;;;;;;7.50;3.80;;;21.00;98.10;;;;;;4996757;28;20026;-67
2021/06/06 11:56:49;;;;;;;4.30;3.75;;;20.80;98.70;;;;;;5011279;28;20034;-63
2021/06/06 11:59:33;;;;;;;5.45;3.05;;;21.00;98.30;;;;;;5001252;28;20061;-65
2021/06/06 12:02:08;;;;;;;7.53;3.03;;;20.50;98.20;;;;;;5006969;28;20250;-66
2021/06/06 12:04:36;;;;;;;7.40;2.97;;;20.60;98.50;;;;;;5008203;28;20018;-66
2021/06/06 12:07:19;;;;;;;6.82;3.55;;;20.90;98.40;;;;;;5000658;28;20027;-65
2021/06/06 12:09:48;;;;;;;4.10;2.97;;;20.80;98.10;;;;;;5000096;28;20488;-63
2021/06/06 12:12:27;;;;;;;4.60;2.80;;;21.00;97.60;;;;;;4997070;28;20042;-65
2021/06/06 12:15:20;;;;;;;6.57;3.67;;;21.20;98.10;;;;;;4988496;28;20026;-66
2021/06/06 12:17:46;;;;;;;6.35;2.40;;;21.50;98.50;;;;;;4991728;28;20072;-65
2021/06/06 12:20:21;;;;;;;6.32;2.85;;;21.30;94.30;;;;;;4993048;28;20600;-67
2021/06/06 12:22:46;;;;;;;5.22;2.70;;;21.20;94.20;;;;;;4998675;28;20077;-64
2021/06/06 12:25:14;;;;;;;7.40;3.80;;;21.10;95.40;;;;;;4989930;28;20243;-65
2021/06/06 12:27:53;;;;;;;5.30;3.60;;;21.10;96.50;;;;;;4992136;28;20023;-63
2021/06/06 12:30:21;;;;;;;5.97;3.30;;;21.40;96.60;;;;;;4990195;28;20026;-66
2021/06/06 12:32:57;;;;;;;5.30;3.08;;;21.60;95.70;;;;;;4998847;28;20373;-63
2021/06/06 12:35:30;;;;;;;4.82;3.47;;;21.60;96.10;;;;;;5003594;28;20492;-64
2021/06/06 12:38:00;;;;;;;5.78;3.45;;;21.80;95.50;;;;;;4989880;28;20175;-64
2021/06/06 12:40:28;;;;;;;3.55;2.78;;;21.60;94.90;;;;;;5006604;28;20029;-64
2021/06/06 12:42:57;;;;;;;9.40;2.00;;;21.50;93.90;;;;;;5007543;28;20048;-65
2021/06/06 12:45:24;;;;;;;4.53;2.22;;;21.70;92.90;;;;;;5005657;28;20199;-65
2021/06/06 12:48:04;;;;;;;3.25;2.13;;;21.90;92.50;;;;;;5013714;28;20014;-66
2021/06/06 12:50:31;;;;;;;3.95;2.53;;;22.00;91.10;;;;;;4988197;28;20026;-64
2021/06/06 12:53:00;;;;;;;5.70;1.90;;;21.80;90.70;;;;;;5005412;28;20029;-63
2021/06/06 12:55:35;;;;;;;3.70;1.95;;;21.80;91.20;;;;;;5005868;28;20080;-66
2021/06/06 12:58:15;;;;;;;5.50;2.45;;;22.10;90.20;;;;;;5011477;28;20049;-65